createdAt,value
2022-10-24T00:00:06.544Z,59.10
2022-10-24T00:02:33.928Z,58.60
2022-10-24T00:05:06.817Z,58.50
2022-10-24T00:07:38.609Z,58.40
2022-10-24T00:10:09.490Z,58.40
2022-10-24T00:12:36.789Z,58.40
2022-10-24T00:15:07.941Z,58.50
2022-10-24T00:17:35.634Z,58.40
2022-10-24T00:20:03.797Z,58.40
2022-10-24T00:22:35.752Z,58.50
2022-10-24T00:25:05.641Z,58.40
2022-10-24T00:27:35.258Z,58.40
2022-10-24T00:30:05.810Z,58.30
2022-10-24T00:32:35.603Z,58.30
2022-10-24T00:35:05.990Z,58.40
2022-10-24T00:37:35.488Z,58.30
2022-10-24T00:40:06.435Z,58.40
2022-10-24T00:42:41.906Z,58.20
2022-10-24T00:45:31.385Z,58.30
2022-10-24T00:48:04.168Z,58.20
2022-10-24T00:50:36.960Z,58.10
2022-10-24T00:53:04.295Z,58.10
2022-10-24T00:55:34.135Z,58.10
2022-10-24T00:58:02.905Z,58.10
2022-10-24T01:00:33.215Z,58.10
2022-10-24T01:03:00.812Z,58.00
2022-10-24T01:05:36.893Z,58.10
2022-10-24T01:08:15.657Z,57.90
2022-10-24T01:11:14.858Z,57.90
2022-10-24T01:14:01.282Z,58.10
2022-10-24T01:16:50.417Z,58.20
2022-10-24T01:19:42.879Z,58.10
2022-10-24T01:22:24.529Z,58.10
2022-10-24T01:25:26.910Z,58.20
2022-10-24T01:28:02.758Z,58.00
2022-10-24T01:30:37.184Z,58.10
2022-10-24T01:33:15.957Z,58.10
2022-10-24T01:35:52.073Z,58.10
2022-10-24T01:38:30.966Z,58.30
2022-10-24T01:41:24.393Z,58.30
2022-10-24T01:43:57.156Z,58.40
2022-10-24T01:46:32.220Z,58.20
2022-10-24T01:49:04.919Z,58.10
2022-10-24T01:51:37.025Z,58.20
2022-10-24T01:54:08.872Z,58.30
2022-10-24T01:56:38.761Z,58.00
2022-10-24T01:59:12.082Z,58.30
2022-10-24T02:01:41.956Z,58.20
2022-10-24T02:04:12.826Z,58.30
2022-10-24T02:06:43.175Z,58.30
2022-10-24T02:09:16.421Z,58.20
2022-10-24T02:11:48.417Z,58.30
2022-10-24T02:14:28.233Z,58.40
2022-10-24T02:16:57.917Z,58.30
2022-10-24T02:19:25.406Z,58.40
2022-10-24T02:21:58.175Z,58.50
2022-10-24T02:24:52.195Z,58.40
2022-10-24T02:27:28.152Z,58.30
2022-10-24T02:30:04.158Z,58.50
2022-10-24T02:32:37.298Z,58.60
2022-10-24T02:35:09.128Z,58.50
2022-10-24T02:37:47.569Z,58.60
2022-10-24T02:40:19.380Z,58.60
2022-10-24T02:42:53.220Z,58.50
2022-10-24T02:45:22.204Z,58.60
2022-10-24T02:47:54.787Z,58.60
2022-10-24T02:50:22.644Z,58.60
2022-10-24T02:52:52.410Z,58.60
2022-10-24T02:55:19.795Z,58.50
2022-10-24T02:57:47.124Z,58.60
2022-10-24T03:00:18.736Z,58.70
2022-10-24T03:02:46.885Z,58.70
2022-10-24T03:05:14.545Z,58.70
2022-10-24T03:07:44.265Z,58.70
2022-10-24T03:10:11.569Z,58.70
2022-10-24T03:12:38.875Z,58.70
2022-10-24T03:15:11.039Z,58.70
2022-10-24T03:17:38.416Z,58.70
2022-10-24T03:20:08.835Z,58.70
2022-10-24T03:22:36.157Z,58.70
2022-10-24T03:25:03.868Z,58.80
2022-10-24T03:27:31.207Z,58.80
2022-10-24T03:29:58.515Z,58.80
2022-10-24T03:32:28.385Z,58.80
2022-10-24T03:34:58.926Z,58.80
2022-10-24T03:37:28.667Z,58.80
2022-10-24T03:39:58.591Z,58.80
2022-10-24T03:42:25.931Z,58.80
2022-10-24T03:44:55.697Z,58.80
2022-10-24T03:47:23.129Z,58.90
2022-10-24T03:49:54.799Z,58.90
2022-10-24T03:52:24.930Z,58.90
2022-10-24T03:54:52.183Z,58.70
2022-10-24T03:57:19.458Z,58.80
2022-10-24T03:59:46.771Z,58.70
2022-10-24T04:02:14.373Z,59.30
2022-10-24T04:04:46.489Z,58.80
2022-10-24T04:07:13.776Z,58.60
2022-10-24T04:09:41.112Z,58.60
2022-10-24T04:12:10.645Z,58.50
2022-10-24T04:14:38.015Z,58.60
2022-10-24T04:17:05.536Z,58.50
2022-10-24T04:19:35.300Z,58.70
2022-10-24T04:22:02.637Z,58.50
2022-10-24T04:24:32.463Z,58.60
2022-10-24T04:26:59.803Z,58.70
2022-10-24T04:29:29.547Z,58.40
2022-10-24T04:31:56.880Z,59.00
2022-10-24T04:34:24.276Z,59.10
2022-10-24T04:36:51.583Z,59.30
2022-10-24T04:39:24.162Z,59.30
2022-10-24T04:41:51.469Z,59.20
2022-10-24T04:44:21.216Z,59.20
2022-10-24T04:46:50.697Z,59.10
2022-10-24T04:49:19.703Z,59.20
2022-10-24T04:51:51.370Z,59.20
2022-10-24T04:54:21.095Z,59.10
2022-10-24T04:56:48.377Z,59.20
2022-10-24T04:59:15.652Z,59.20
2022-10-24T05:01:43.013Z,59.10
2022-10-24T05:04:10.498Z,59.00
2022-10-24T05:06:39.287Z,59.00
2022-10-24T05:09:08.827Z,58.90
2022-10-24T05:11:38.468Z,58.90
2022-10-24T05:14:08.061Z,58.80
2022-10-24T05:16:35.359Z,58.70
2022-10-24T05:19:02.708Z,58.70
2022-10-24T05:21:33.864Z,58.60
2022-10-24T05:24:01.176Z,58.50
2022-10-24T05:26:31.175Z,58.50
2022-10-24T05:29:00.794Z,58.40
2022-10-24T05:31:28.179Z,58.30
2022-10-24T05:33:57.703Z,58.30
2022-10-24T05:36:29.660Z,58.20
2022-10-24T05:38:56.975Z,58.20
2022-10-24T05:41:27.144Z,58.20
2022-10-24T05:43:56.884Z,58.20
2022-10-24T05:46:24.386Z,58.00
2022-10-24T05:48:51.675Z,58.00
2022-10-24T05:51:19.024Z,57.90
2022-10-24T05:53:46.379Z,57.80
2022-10-24T05:56:16.210Z,57.90
2022-10-24T05:58:45.840Z,57.80
2022-10-24T06:01:13.240Z,57.90
2022-10-24T06:03:42.887Z,57.90
2022-10-24T06:06:13.153Z,57.80
2022-10-24T06:08:40.477Z,57.80
2022-10-24T06:11:13.886Z,57.70
2022-10-24T06:13:41.356Z,57.60
2022-10-24T06:16:12.353Z,57.60
2022-10-24T06:18:42.871Z,57.60
2022-10-24T06:21:11.447Z,57.60
2022-10-24T06:23:39.028Z,57.60
2022-10-24T06:26:11.016Z,57.50
2022-10-24T06:28:38.882Z,57.50
2022-10-24T06:31:06.614Z,57.60
2022-10-24T06:33:36.417Z,57.50
2022-10-24T06:36:09.512Z,57.50
2022-10-24T06:38:39.690Z,57.50
2022-10-24T06:41:13.197Z,57.50
2022-10-24T06:43:42.458Z,57.50
2022-10-24T06:46:13.547Z,57.50
2022-10-24T06:48:42.964Z,57.60
2022-10-24T06:51:14.400Z,57.60
2022-10-24T06:53:41.604Z,57.60
2022-10-24T06:56:08.798Z,57.90
2022-10-24T06:58:41.159Z,57.60
2022-10-24T07:01:14.330Z,57.50
2022-10-24T07:03:41.925Z,57.40
2022-10-24T07:06:16.768Z,57.50
2022-10-24T07:08:44.622Z,57.40
2022-10-24T07:11:14.410Z,57.50
2022-10-24T07:13:41.683Z,57.50
2022-10-24T07:16:11.706Z,57.50
2022-10-24T07:18:44.388Z,57.50
2022-10-24T07:21:18.634Z,57.50
2022-10-24T07:23:49.790Z,57.50
2022-10-24T07:26:17.865Z,57.50
2022-10-24T07:28:47.452Z,57.60
2022-10-24T07:31:20.833Z,57.60
2022-10-24T07:33:48.124Z,57.50
2022-10-24T07:36:21.068Z,57.60
2022-10-24T07:38:52.030Z,57.60
2022-10-24T07:41:21.968Z,57.50
2022-10-24T07:43:49.295Z,57.50
2022-10-24T07:46:22.507Z,57.50
2022-10-24T07:48:53.594Z,57.50
2022-10-24T07:51:21.413Z,57.50
2022-10-24T07:53:49.441Z,57.50
2022-10-24T07:56:17.831Z,57.50
2022-10-24T07:58:46.708Z,57.40
2022-10-24T08:01:20.766Z,57.40
2022-10-24T08:03:48.443Z,57.40
2022-10-24T08:06:20.217Z,57.50
2022-10-24T08:08:52.974Z,57.50
2022-10-24T08:11:28.144Z,57.50
2022-10-24T08:13:59.568Z,57.50
2022-10-24T08:16:27.082Z,57.50
2022-10-24T08:18:58.716Z,57.50
2022-10-24T08:21:26.870Z,57.40
2022-10-24T08:23:55.288Z,57.50
2022-10-24T08:26:24.436Z,57.50
2022-10-24T08:28:53.355Z,57.50
2022-10-24T08:31:23.060Z,57.50
2022-10-24T08:33:54.839Z,57.60
2022-10-24T08:36:33.411Z,57.60
2022-10-24T08:39:04.115Z,57.60
2022-10-24T08:41:38.146Z,57.70
2022-10-24T08:44:15.714Z,57.70
2022-10-24T08:46:53.642Z,57.80
2022-10-24T08:49:33.737Z,57.80
2022-10-24T08:52:17.024Z,57.70
2022-10-24T08:54:46.114Z,57.80
2022-10-24T08:57:28.980Z,57.80
2022-10-24T09:00:03.526Z,57.80
2022-10-24T09:02:39.809Z,57.70
2022-10-24T09:05:19.126Z,57.80
2022-10-24T09:07:48.171Z,57.80
2022-10-24T09:10:45.472Z,57.80
2022-10-24T09:13:18.901Z,57.80
2022-10-24T09:15:47.450Z,57.80
2022-10-24T09:18:30.537Z,57.80
2022-10-24T09:21:05.478Z,57.90
2022-10-24T09:23:35.368Z,57.80
2022-10-24T09:26:11.196Z,57.80
2022-10-24T09:28:39.501Z,57.80
2022-10-24T09:31:27.344Z,57.90
2022-10-24T09:34:00.484Z,57.90
2022-10-24T09:36:33.225Z,57.90
2022-10-24T09:39:30.820Z,57.80
2022-10-24T09:41:59.803Z,58.00
2022-10-24T09:44:34.792Z,58.00
2022-10-24T09:47:06.706Z,58.00
2022-10-24T09:49:42.711Z,58.10
2022-10-24T09:52:25.714Z,58.10
2022-10-24T09:55:18.455Z,58.00
2022-10-24T09:57:46.062Z,58.00
2022-10-24T10:00:36.057Z,58.10
2022-10-24T10:03:23.642Z,58.20
2022-10-24T10:05:56.775Z,58.10
2022-10-24T10:08:37.330Z,58.10
2022-10-24T10:11:04.559Z,58.30
2022-10-24T10:13:45.655Z,58.30
2022-10-24T10:16:27.480Z,58.30
2022-10-24T10:19:15.208Z,58.30
2022-10-24T10:22:08.076Z,58.30
2022-10-24T10:24:44.097Z,58.30
2022-10-24T10:27:31.442Z,58.20
2022-10-24T10:30:11.435Z,58.30
2022-10-24T10:32:47.471Z,58.10
2022-10-24T10:35:51.986Z,58.20
2022-10-24T10:38:27.824Z,58.10
2022-10-24T10:41:22.254Z,58.20
2022-10-24T10:44:07.374Z,58.30
2022-10-24T10:46:56.939Z,58.20
2022-10-24T10:49:34.304Z,58.40
2022-10-24T10:52:21.995Z,58.40
2022-10-24T10:55:19.627Z,58.60
2022-10-24T10:58:12.902Z,58.50
2022-10-24T11:01:02.267Z,58.50
2022-10-24T11:03:42.763Z,58.60
2022-10-24T11:06:33.808Z,58.60
2022-10-24T11:09:19.536Z,58.60
2022-10-24T11:12:08.453Z,58.50
2022-10-24T11:14:44.765Z,58.50
2022-10-24T11:17:32.638Z,58.50
2022-10-24T11:20:21.517Z,58.40
2022-10-24T11:22:51.273Z,58.50
2022-10-24T11:25:33.231Z,58.60
2022-10-24T11:28:41.011Z,58.70
2022-10-24T11:31:25.689Z,58.80
2022-10-24T11:34:06.252Z,58.70
2022-10-24T11:37:06.729Z,58.80
2022-10-24T11:39:41.443Z,58.80
2022-10-24T11:42:30.469Z,58.80
2022-10-24T11:45:06.573Z,58.90
2022-10-24T11:48:27.252Z,59.00
2022-10-24T11:51:17.885Z,59.00
2022-10-24T11:53:55.012Z,59.00
2022-10-24T11:56:40.191Z,59.00
2022-10-24T11:59:18.934Z,59.00
2022-10-24T12:01:55.364Z,59.00
2022-10-24T12:04:43.456Z,59.00
2022-10-24T12:07:49.765Z,59.00
2022-10-24T12:10:38.378Z,59.00
2022-10-24T12:13:20.306Z,58.90
2022-10-24T12:16:32.826Z,59.00
2022-10-24T12:19:04.311Z,59.00
2022-10-24T12:21:41.784Z,59.00
2022-10-24T12:24:23.106Z,58.90
2022-10-24T12:27:06.956Z,59.00
2022-10-24T12:29:42.922Z,59.00
2022-10-24T12:32:32.905Z,58.90
2022-10-24T12:35:31.891Z,58.90
2022-10-24T12:37:59.783Z,59.00
2022-10-24T12:40:45.787Z,59.00
2022-10-24T12:43:34.142Z,58.80
2022-10-24T12:46:18.868Z,58.90
2022-10-24T12:48:59.321Z,58.90
2022-10-24T12:51:33.882Z,58.90
2022-10-24T12:54:04.376Z,58.90
2022-10-24T12:56:34.045Z,59.00
2022-10-24T12:59:19.163Z,59.10
2022-10-24T13:01:52.317Z,59.10
2022-10-24T13:04:28.480Z,59.50
2022-10-24T13:07:29.481Z,59.60
2022-10-24T13:10:12.610Z,59.30
2022-10-24T13:12:58.378Z,59.20
2022-10-24T13:15:47.588Z,59.30
2022-10-24T13:18:35.035Z,59.60
2022-10-24T13:21:33.236Z,59.50
2022-10-24T13:24:34.734Z,59.60
2022-10-24T13:27:12.704Z,59.60
2022-10-24T13:29:41.222Z,59.50
2022-10-24T13:32:11.638Z,59.40
2022-10-24T13:34:53.341Z,59.50
2022-10-24T13:37:41.339Z,59.50
2022-10-24T13:40:36.425Z,59.60
2022-10-24T13:43:20.103Z,59.70
2022-10-24T13:45:53.296Z,59.60
2022-10-24T13:48:23.525Z,59.70
2022-10-24T13:51:14.092Z,59.60
2022-10-24T13:53:52.184Z,59.70
2022-10-24T13:56:19.745Z,59.90
2022-10-24T13:58:47.343Z,60.10
2022-10-24T14:01:27.671Z,60.10
2022-10-24T14:03:56.266Z,60.10
2022-10-24T14:06:29.858Z,60.20
2022-10-24T14:09:06.893Z,60.30
2022-10-24T14:11:39.728Z,60.30
2022-10-24T14:14:20.690Z,60.30
2022-10-24T14:16:48.159Z,60.20
2022-10-24T14:19:17.727Z,60.20
2022-10-24T14:21:47.572Z,60.10
2022-10-24T14:24:24.093Z,60.20
2022-10-24T14:26:56.920Z,60.20
2022-10-24T14:29:32.432Z,60.20
2022-10-24T14:32:08.670Z,60.10
2022-10-24T14:34:37.457Z,60.20
2022-10-24T14:37:14.213Z,60.20
2022-10-24T14:39:46.402Z,60.20
2022-10-24T14:42:16.658Z,60.20
2022-10-24T14:44:46.392Z,60.30
2022-10-24T14:47:32.981Z,60.30
2022-10-24T14:50:00.460Z,60.30
2022-10-24T14:52:36.435Z,60.20
2022-10-24T14:55:20.656Z,60.20
2022-10-24T14:57:53.941Z,60.10
2022-10-24T15:00:27.078Z,60.00
2022-10-24T15:02:58.401Z,60.00
2022-10-24T15:05:30.889Z,60.00
2022-10-24T15:10:50.564Z,60.00
2022-10-24T15:13:26.383Z,60.00
2022-10-24T15:15:59.032Z,60.10
2022-10-24T15:18:32.049Z,60.10
2022-10-24T15:21:12.968Z,60.10
2022-10-24T15:24:08.866Z,60.20
2022-10-24T15:26:44.912Z,60.10
2022-10-24T15:29:14.961Z,60.20
2022-10-24T15:31:45.172Z,60.30
2022-10-24T15:34:21.158Z,60.30
2022-10-24T15:36:51.153Z,60.20
2022-10-24T15:39:24.618Z,60.90
2022-10-24T15:41:53.236Z,60.20
2022-10-24T15:44:27.843Z,60.20
2022-10-24T15:46:58.131Z,60.10
2022-10-24T15:49:25.489Z,60.10
2022-10-24T15:51:59.047Z,60.10
2022-10-24T15:54:31.899Z,60.20
2022-10-24T15:57:05.332Z,60.20
2022-10-24T15:59:32.980Z,60.20
2022-10-24T16:02:03.010Z,60.30
2022-10-24T16:04:34.518Z,60.20
2022-10-24T16:07:02.471Z,60.20
2022-10-24T16:09:31.262Z,60.40
2022-10-24T16:11:58.876Z,60.30
2022-10-24T16:14:26.367Z,60.30
2022-10-24T16:16:55.199Z,60.70
2022-10-24T16:19:23.911Z,60.30
2022-10-24T16:21:58.435Z,60.30
2022-10-24T16:24:29.013Z,60.30
2022-10-24T16:26:56.413Z,60.30
2022-10-24T16:29:25.844Z,60.30
2022-10-24T16:31:53.174Z,60.10
2022-10-24T16:34:20.536Z,60.10
2022-10-24T16:36:50.031Z,60.00
2022-10-24T16:39:17.314Z,60.10
2022-10-24T16:41:46.467Z,60.00
2022-10-24T16:44:19.396Z,60.40
2022-10-24T16:46:46.940Z,60.00
2022-10-24T16:49:14.241Z,60.10
2022-10-24T16:51:44.010Z,60.10
2022-10-24T16:54:11.485Z,60.10
2022-10-24T16:56:38.753Z,60.10
2022-10-24T16:59:11.621Z,60.00
2022-10-24T17:01:42.374Z,60.10
2022-10-24T17:04:09.728Z,60.10
2022-10-24T17:06:39.569Z,60.10
2022-10-24T17:09:09.363Z,60.10
2022-10-24T17:11:46.065Z,60.00
2022-10-24T17:14:14.355Z,60.00
2022-10-24T17:16:42.884Z,60.00
2022-10-24T17:19:16.102Z,60.00
2022-10-24T17:21:49.545Z,59.80
2022-10-24T17:24:22.488Z,59.70
2022-10-24T17:26:52.800Z,59.50
2022-10-24T17:29:27.019Z,59.60
2022-10-24T17:31:55.379Z,59.60
2022-10-24T17:34:23.116Z,59.70
2022-10-24T17:37:21.271Z,59.70
2022-10-24T17:39:58.819Z,59.70
2022-10-24T17:42:28.928Z,59.80
2022-10-24T17:44:58.813Z,59.80
2022-10-24T17:47:26.217Z,59.80
2022-10-24T17:49:53.494Z,59.90
2022-10-24T17:52:24.654Z,59.90
2022-10-24T17:54:52.103Z,59.90
2022-10-24T17:57:19.469Z,59.90
2022-10-24T17:59:46.747Z,60.00
2022-10-24T18:02:16.625Z,59.90
2022-10-24T18:04:49.075Z,60.00
2022-10-24T18:07:21.713Z,59.80
2022-10-24T18:10:00.401Z,59.70
2022-10-24T18:12:34.669Z,59.60
2022-10-24T18:15:02.550Z,59.40
2022-10-24T18:17:34.007Z,59.50
2022-10-24T18:20:01.351Z,59.50
2022-10-24T18:22:34.926Z,59.60
2022-10-24T18:25:02.628Z,59.60
2022-10-24T18:27:29.889Z,59.60
2022-10-24T18:29:57.205Z,59.60
2022-10-24T18:32:27.143Z,59.60
2022-10-24T18:34:56.825Z,59.60
2022-10-24T18:37:24.311Z,59.70
2022-10-24T18:39:53.410Z,59.60
2022-10-24T18:42:33.827Z,59.60
2022-10-24T18:45:01.700Z,59.60
2022-10-24T18:47:34.790Z,59.70
2022-10-24T18:50:05.070Z,59.60
2022-10-24T18:52:59.472Z,59.60
2022-10-24T18:55:28.517Z,59.60
2022-10-24T18:58:02.117Z,59.40
2022-10-24T19:00:32.214Z,59.30
2022-10-24T19:03:26.016Z,59.20
2022-10-24T19:05:58.822Z,59.30
2022-10-24T19:08:27.715Z,59.30
2022-10-24T19:10:56.503Z,59.30
2022-10-24T19:13:25.808Z,59.20
2022-10-24T19:16:04.083Z,59.40
2022-10-24T19:18:36.390Z,59.40
2022-10-24T19:21:06.744Z,59.50
2022-10-24T19:23:36.318Z,59.50
2022-10-24T19:26:06.621Z,59.50
2022-10-24T19:28:34.077Z,59.50
2022-10-24T19:31:01.397Z,59.50
2022-10-24T19:33:30.325Z,59.50
2022-10-24T19:36:02.548Z,59.50
2022-10-24T19:38:32.717Z,60.00
2022-10-24T19:41:02.285Z,59.40
2022-10-24T19:43:32.341Z,59.50
2022-10-24T19:46:19.407Z,59.40
2022-10-24T19:48:49.235Z,59.40
2022-10-24T19:51:20.701Z,59.30
2022-10-24T19:53:49.686Z,59.30
2022-10-24T19:56:25.154Z,59.30
2022-10-24T19:58:54.490Z,59.30
2022-10-24T20:01:26.398Z,59.30
2022-10-24T20:03:55.489Z,59.20
2022-10-24T20:06:24.559Z,59.20
2022-10-24T20:08:56.747Z,59.20
2022-10-24T20:11:26.441Z,59.20
2022-10-24T20:13:54.014Z,59.20
2022-10-24T20:16:21.487Z,59.30
2022-10-24T20:18:48.871Z,59.20
2022-10-24T20:21:20.589Z,59.10
2022-10-24T20:23:51.329Z,59.20
2022-10-24T20:26:23.800Z,59.20
2022-10-24T20:28:52.548Z,59.20
2022-10-24T20:31:29.014Z,59.10
2022-10-24T20:34:05.193Z,59.10
2022-10-24T20:36:44.434Z,59.10
2022-10-24T20:39:16.183Z,59.80
2022-10-24T20:41:49.145Z,59.10
2022-10-24T20:44:21.538Z,59.10
2022-10-24T20:46:48.835Z,59.10
2022-10-24T20:49:16.149Z,59.00
2022-10-24T20:51:45.656Z,59.10
2022-10-24T20:54:15.399Z,59.10
2022-10-24T20:56:45.067Z,59.10
2022-10-24T20:59:15.709Z,59.00
2022-10-24T21:01:43.113Z,59.10
2022-10-24T21:04:14.663Z,59.10
2022-10-24T21:06:46.738Z,59.10
2022-10-24T21:09:15.112Z,59.00
2022-10-24T21:11:44.653Z,59.00
2022-10-24T21:14:17.404Z,59.00
2022-10-24T21:16:44.739Z,58.90
2022-10-24T21:19:14.516Z,58.90
2022-10-24T21:21:44.273Z,58.90
2022-10-24T21:24:15.184Z,58.90
2022-10-24T21:26:42.443Z,58.80
2022-10-24T21:29:32.071Z,58.80
2022-10-24T21:32:04.771Z,58.80
2022-10-24T21:34:34.479Z,58.80
2022-10-24T21:37:03.899Z,58.80
2022-10-24T21:39:33.864Z,58.70
2022-10-24T21:42:01.178Z,58.70
2022-10-24T21:44:30.787Z,58.70
2022-10-24T21:46:58.139Z,58.60
2022-10-24T21:49:25.720Z,58.60
2022-10-24T21:52:00.250Z,58.70
2022-10-24T21:54:30.496Z,58.50
2022-10-24T21:56:59.998Z,58.50
2022-10-24T21:59:27.316Z,58.50
2022-10-24T22:01:54.758Z,58.60
2022-10-24T22:04:22.226Z,58.50
2022-10-24T22:06:49.799Z,58.60
2022-10-24T22:09:23.649Z,58.60
2022-10-24T22:11:51.316Z,58.50
2022-10-24T22:14:18.653Z,58.50
2022-10-24T22:16:48.689Z,58.50
2022-10-24T22:19:18.792Z,58.50
2022-10-24T22:21:50.714Z,58.40
2022-10-24T22:24:23.971Z,58.40
2022-10-24T22:26:52.565Z,58.30
2022-10-24T22:29:25.387Z,58.30
2022-10-24T22:31:53.843Z,58.30
2022-10-24T22:34:24.091Z,58.30
2022-10-24T22:37:28.064Z,58.30
2022-10-24T22:39:55.595Z,58.20
2022-10-24T22:42:26.197Z,58.30
2022-10-24T22:44:56.441Z,58.20
2022-10-24T22:47:44.950Z,58.30
2022-10-24T22:50:21.578Z,58.30
2022-10-24T22:52:50.193Z,58.30
2022-10-24T22:55:31.472Z,58.30
2022-10-24T22:58:01.268Z,58.20
2022-10-24T23:00:31.080Z,58.30
2022-10-24T23:03:11.706Z,58.20
2022-10-24T23:05:54.439Z,58.10
2022-10-24T23:08:40.039Z,58.20
2022-10-24T23:11:11.238Z,58.20
2022-10-24T23:13:39.519Z,58.20
2022-10-24T23:16:18.828Z,58.50
2022-10-24T23:18:48.798Z,58.80
2022-10-24T23:21:36.916Z,58.10
2022-10-24T23:24:04.510Z,58.20
2022-10-24T23:26:43.873Z,58.30
2022-10-24T23:29:29.342Z,58.30
2022-10-24T23:31:57.176Z,58.30
2022-10-24T23:34:25.271Z,58.30
2022-10-24T23:37:01.538Z,58.20
2022-10-24T23:39:32.902Z,58.40
2022-10-24T23:42:04.906Z,58.20
2022-10-24T23:44:34.580Z,58.50
2022-10-24T23:47:12.729Z,58.30
2022-10-24T23:50:05.072Z,58.20
2022-10-24T23:53:00.356Z,58.20
2022-10-24T23:55:28.151Z,58.30
2022-10-24T23:57:57.865Z,58.30
